sensor_id;sensor_type;location;lat;lon;timestamp;temperature;humidity
17039;DHT22;8636;55.750;13.202;2024-03-08T00:00:40;-2.10;99.90
17039;DHT22;8636;55.750;13.202;2024-03-08T00:03:09;-2.10;99.90
17039;DHT22;8636;55.750;13.202;2024-03-08T00:05:44;-2.10;99.90
17039;DHT22;8636;55.750;13.202;2024-03-08T00:08:19;-2.20;99.90
17039;DHT22;8636;55.750;13.202;2024-03-08T00:10:56;-2.00;99.90
17039;DHT22;8636;55.750;13.202;2024-03-08T00:13:24;-2.10;99.90
17039;DHT22;8636;55.750;13.202;2024-03-08T00:15:52;-2.10;99.90
17039;DHT22;8636;55.750;13.202;2024-03-08T00:18:27;-2.00;99.90
17039;DHT22;8636;55.750;13.202;2024-03-08T00:20:56;-2.00;99.90
17039;DHT22;8636;55.750;13.202;2024-03-08T00:23:24;-2.20;99.90
17039;DHT22;8636;55.750;13.202;2024-03-08T00:26:00;-2.20;99.90
17039;DHT22;8636;55.750;13.202;2024-03-08T00:28:30;-2.30;99.90
17039;DHT22;8636;55.750;13.202;2024-03-08T00:30:58;-2.40;99.90
17039;DHT22;8636;55.750;13.202;2024-03-08T00:33:33;-2.40;99.90
17039;DHT22;8636;55.750;13.202;2024-03-08T00:36:01;-2.40;99.90
17039;DHT22;8636;55.750;13.202;2024-03-08T00:38:30;-2.40;99.90
17039;DHT22;8636;55.750;13.202;2024-03-08T00:41:07;-2.50;99.90
17039;DHT22;8636;55.750;13.202;2024-03-08T00:43:35;-2.50;99.90
17039;DHT22;8636;55.750;13.202;2024-03-08T00:46:03;-2.50;99.90
17039;DHT22;8636;55.750;13.202;2024-03-08T00:48:38;-2.60;99.90
17039;DHT22;8636;55.750;13.202;2024-03-08T00:51:10;-2.60;99.90
17039;DHT22;8636;55.750;13.202;2024-03-08T00:53:38;-2.60;99.90
17039;DHT22;8636;55.750;13.202;2024-03-08T00:56:14;-2.70;99.90
17039;DHT22;8636;55.750;13.202;2024-03-08T00:58:43;-2.80;99.90
17039;DHT22;8636;55.750;13.202;2024-03-08T01:01:13;-2.90;99.90
17039;DHT22;8636;55.750;13.202;2024-03-08T01:03:49;-2.90;99.90
17039;DHT22;8636;55.750;13.202;2024-03-08T01:06:24;-2.70;99.90
17039;DHT22;8636;55.750;13.202;2024-03-08T01:09:05;-2.60;99.90
17039;DHT22;8636;55.750;13.202;2024-03-08T01:11:35;-2.70;99.90
17039;DHT22;8636;55.750;13.202;2024-03-08T01:14:05;-2.70;99.90
17039;DHT22;8636;55.750;13.202;2024-03-08T01:16:40;-2.70;99.90
17039;DHT22;8636;55.750;13.202;2024-03-08T01:19:08;-2.70;99.90
17039;DHT22;8636;55.750;13.202;2024-03-08T01:21:37;-2.70;99.90
17039;DHT22;8636;55.750;13.202;2024-03-08T01:24:11;-2.80;99.90
17039;DHT22;8636;55.750;13.202;2024-03-08T01:26:41;-2.80;99.90
17039;DHT22;8636;55.750;13.202;2024-03-08T01:29:09;-2.90;99.90
17039;DHT22;8636;55.750;13.202;2024-03-08T01:31:44;-2.90;99.90
17039;DHT22;8636;55.750;13.202;2024-03-08T01:34:12;-2.90;99.90
17039;DHT22;8636;55.750;13.202;2024-03-08T01:36:40;-3.00;99.90
17039;DHT22;8636;55.750;13.202;2024-03-08T01:39:15;-2.80;99.90
17039;DHT22;8636;55.750;13.202;2024-03-08T01:41:45;-2.80;99.90
17039;DHT22;8636;55.750;13.202;2024-03-08T01:44:13;-2.70;99.90
17039;DHT22;8636;55.750;13.202;2024-03-08T01:46:51;-2.80;99.90
17039;DHT22;8636;55.750;13.202;2024-03-08T01:49:21;-3.00;99.90
17039;DHT22;8636;55.750;13.202;2024-03-08T01:51:57;-3.00;99.90
17039;DHT22;8636;55.750;13.202;2024-03-08T01:54:26;-2.90;99.90
17039;DHT22;8636;55.750;13.202;2024-03-08T01:56:56;-2.90;99.90
17039;DHT22;8636;55.750;13.202;2024-03-08T01:59:32;-3.00;99.90
17039;DHT22;8636;55.750;13.202;2024-03-08T02:02:08;-3.00;99.90
17039;DHT22;8636;55.750;13.202;2024-03-08T02:04:46;-2.80;99.90
17039;DHT22;8636;55.750;13.202;2024-03-08T02:07:14;-2.80;99.90
17039;DHT22;8636;55.750;13.202;2024-03-08T02:09:43;-2.50;99.90
17039;DHT22;8636;55.750;13.202;2024-03-08T02:12:20;-2.50;99.90
17039;DHT22;8636;55.750;13.202;2024-03-08T02:14:48;-2.50;99.90
17039;DHT22;8636;55.750;13.202;2024-03-08T02:17:16;-2.50;99.90
17039;DHT22;8636;55.750;13.202;2024-03-08T02:19:51;-2.40;99.90
17039;DHT22;8636;55.750;13.202;2024-03-08T02:22:22;-2.40;99.90
17039;DHT22;8636;55.750;13.202;2024-03-08T02:24:50;-2.60;99.90
17039;DHT22;8636;55.750;13.202;2024-03-08T02:27:24;-2.80;99.90
17039;DHT22;8636;55.750;13.202;2024-03-08T02:29:54;-2.90;99.90
17039;DHT22;8636;55.750;13.202;2024-03-08T02:32:23;-2.60;99.90
17039;DHT22;8636;55.750;13.202;2024-03-08T02:34:57;-2.60;99.90
17039;DHT22;8636;55.750;13.202;2024-03-08T02:37:28;-2.60;99.90
17039;DHT22;8636;55.750;13.202;2024-03-08T02:39:56;-2.60;99.90
17039;DHT22;8636;55.750;13.202;2024-03-08T02:42:30;-2.60;99.90
17039;DHT22;8636;55.750;13.202;2024-03-08T02:44:58;-2.70;99.90
17039;DHT22;8636;55.750;13.202;2024-03-08T02:47:26;-2.70;99.90
17039;DHT22;8636;55.750;13.202;2024-03-08T02:50:05;-2.80;99.90
17039;DHT22;8636;55.750;13.202;2024-03-08T02:52:36;-3.00;99.90
17039;DHT22;8636;55.750;13.202;2024-03-08T02:55:04;-2.90;99.90
17039;DHT22;8636;55.750;13.202;2024-03-08T02:57:39;-2.80;99.90
17039;DHT22;8636;55.750;13.202;2024-03-08T03:00:08;-2.70;99.90
17039;DHT22;8636;55.750;13.202;2024-03-08T03:02:36;-2.60;99.90
17039;DHT22;8636;55.750;13.202;2024-03-08T03:05:11;-2.60;99.90
17039;DHT22;8636;55.750;13.202;2024-03-08T03:07:47;-2.60;99.90
17039;DHT22;8636;55.750;13.202;2024-03-08T03:10:22;-2.70;99.90
17039;DHT22;8636;55.750;13.202;2024-03-08T03:12:50;-2.60;99.90
17039;DHT22;8636;55.750;13.202;2024-03-08T03:15:18;-2.60;99.90
17039;DHT22;8636;55.750;13.202;2024-03-08T03:17:54;-2.70;99.90
17039;DHT22;8636;55.750;13.202;2024-03-08T03:20:22;-3.00;99.90
17039;DHT22;8636;55.750;13.202;2024-03-08T03:23:01;-3.00;99.90
17039;DHT22;8636;55.750;13.202;2024-03-08T03:25:30;-2.90;99.90
17039;DHT22;8636;55.750;13.202;2024-03-08T03:28:08;-3.00;99.90
17039;DHT22;8636;55.750;13.202;2024-03-08T03:30:38;-2.80;99.90
17039;DHT22;8636;55.750;13.202;2024-03-08T03:33:06;-2.80;99.90
17039;DHT22;8636;55.750;13.202;2024-03-08T03:35:40;-2.90;99.90
17039;DHT22;8636;55.750;13.202;2024-03-08T03:38:12;-3.10;99.90
17039;DHT22;8636;55.750;13.202;2024-03-08T03:40:47;-3.00;99.90
17039;DHT22;8636;55.750;13.202;2024-03-08T03:43:19;-3.00;99.90
17039;DHT22;8636;55.750;13.202;2024-03-08T03:45:47;-3.10;99.90
17039;DHT22;8636;55.750;13.202;2024-03-08T03:48:21;-3.10;99.90
17039;DHT22;8636;55.750;13.202;2024-03-08T03:50:49;-3.20;99.90
17039;DHT22;8636;55.750;13.202;2024-03-08T03:53:18;-3.20;99.90
17039;DHT22;8636;55.750;13.202;2024-03-08T03:55:53;-3.30;99.90
17039;DHT22;8636;55.750;13.202;2024-03-08T03:58:21;-3.30;99.90
17039;DHT22;8636;55.750;13.202;2024-03-08T04:00:49;-3.20;99.90
17039;DHT22;8636;55.750;13.202;2024-03-08T04:03:58;-3.30;99.90
17039;DHT22;8636;55.750;13.202;2024-03-08T04:06:26;-3.20;99.90
17039;DHT22;8636;55.750;13.202;2024-03-08T04:09:01;-3.00;99.90
17039;DHT22;8636;55.750;13.202;2024-03-08T04:11:31;-3.10;99.90
17039;DHT22;8636;55.750;13.202;2024-03-08T04:13:59;-3.10;99.90
17039;DHT22;8636;55.750;13.202;2024-03-08T04:16:37;-3.20;99.90
17039;DHT22;8636;55.750;13.202;2024-03-08T04:19:23;-3.30;99.90
17039;DHT22;8636;55.750;13.202;2024-03-08T04:21:57;-3.20;99.90
17039;DHT22;8636;55.750;13.202;2024-03-08T04:24:26;-3.00;99.90
17039;DHT22;8636;55.750;13.202;2024-03-08T04:26:54;-2.90;99.90
17039;DHT22;8636;55.750;13.202;2024-03-08T04:29:29;-3.10;99.90
17039;DHT22;8636;55.750;13.202;2024-03-08T04:31:59;-3.30;99.90
17039;DHT22;8636;55.750;13.202;2024-03-08T04:34:26;-3.30;99.90
17039;DHT22;8636;55.750;13.202;2024-03-08T04:37:02;-3.40;99.90
17039;DHT22;8636;55.750;13.202;2024-03-08T04:39:32;-3.40;99.90
17039;DHT22;8636;55.750;13.202;2024-03-08T04:42:02;-3.30;99.90
17039;DHT22;8636;55.750;13.202;2024-03-08T04:44:39;-3.30;99.90
17039;DHT22;8636;55.750;13.202;2024-03-08T04:47:07;-3.30;99.90
17039;DHT22;8636;55.750;13.202;2024-03-08T04:49:36;-3.30;99.90
17039;DHT22;8636;55.750;13.202;2024-03-08T04:52:11;-3.30;99.90
17039;DHT22;8636;55.750;13.202;2024-03-08T04:54:40;-3.10;99.90
17039;DHT22;8636;55.750;13.202;2024-03-08T04:57:08;-3.10;99.90
17039;DHT22;8636;55.750;13.202;2024-03-08T04:59:44;-3.10;99.90
17039;DHT22;8636;55.750;13.202;2024-03-08T05:02:12;-3.10;99.90
17039;DHT22;8636;55.750;13.202;2024-03-08T05:04:55;-3.20;99.90
17039;DHT22;8636;55.750;13.202;2024-03-08T05:07:23;-3.10;99.90
17039;DHT22;8636;55.750;13.202;2024-03-08T05:09:53;-3.20;99.90
17039;DHT22;8636;55.750;13.202;2024-03-08T05:12:28;-3.20;99.90
17039;DHT22;8636;55.750;13.202;2024-03-08T05:14:56;-3.10;99.90
17039;DHT22;8636;55.750;13.202;2024-03-08T05:17:24;-3.20;99.90
17039;DHT22;8636;55.750;13.202;2024-03-08T05:19:58;-3.30;99.90
17039;DHT22;8636;55.750;13.202;2024-03-08T05:22:28;-3.40;99.90
17039;DHT22;8636;55.750;13.202;2024-03-08T05:24:57;-3.30;99.90
17039;DHT22;8636;55.750;13.202;2024-03-08T05:27:31;-3.30;99.90
17039;DHT22;8636;55.750;13.202;2024-03-08T05:29:59;-3.40;99.90
17039;DHT22;8636;55.750;13.202;2024-03-08T05:32:27;-3.50;99.90
17039;DHT22;8636;55.750;13.202;2024-03-08T05:35:01;-3.50;99.90
17039;DHT22;8636;55.750;13.202;2024-03-08T05:37:33;-3.50;99.90
17039;DHT22;8636;55.750;13.202;2024-03-08T05:40:10;-3.50;99.90
17039;DHT22;8636;55.750;13.202;2024-03-08T05:42:44;-3.60;99.90
17039;DHT22;8636;55.750;13.202;2024-03-08T05:45:18;-3.70;99.90
17039;DHT22;8636;55.750;13.202;2024-03-08T05:47:46;-3.60;99.90
17039;DHT22;8636;55.750;13.202;2024-03-08T05:50:14;-3.60;99.90
17039;DHT22;8636;55.750;13.202;2024-03-08T05:52:49;-3.60;99.90
17039;DHT22;8636;55.750;13.202;2024-03-08T05:55:18;-3.50;99.90
17039;DHT22;8636;55.750;13.202;2024-03-08T05:57:47;-3.40;99.90
17039;DHT22;8636;55.750;13.202;2024-03-08T06:00:22;-3.40;99.90
17039;DHT22;8636;55.750;13.202;2024-03-08T06:02:57;-3.40;99.90
17039;DHT22;8636;55.750;13.202;2024-03-08T06:05:31;-3.30;99.90
17039;DHT22;8636;55.750;13.202;2024-03-08T06:08:00;-3.40;99.90
17039;DHT22;8636;55.750;13.202;2024-03-08T06:10:37;-3.50;99.90
17039;DHT22;8636;55.750;13.202;2024-03-08T06:13:25;-3.40;99.90
17039;DHT22;8636;55.750;13.202;2024-03-08T06:15:56;-3.30;99.90
17039;DHT22;8636;55.750;13.202;2024-03-08T06:18:33;-3.10;99.90
17039;DHT22;8636;55.750;13.202;2024-03-08T06:21:03;-2.60;99.90
17039;DHT22;8636;55.750;13.202;2024-03-08T06:23:32;-1.80;99.90
17039;DHT22;8636;55.750;13.202;2024-03-08T06:26:08;-0.50;99.90
17039;DHT22;8636;55.750;13.202;2024-03-08T06:28:37;-0.10;99.90
17039;DHT22;8636;55.750;13.202;2024-03-08T06:31:05;0.70;99.90
17039;DHT22;8636;55.750;13.202;2024-03-08T06:33:41;-0.20;99.90
17039;DHT22;8636;55.750;13.202;2024-03-08T06:36:09;-0.70;99.90
17039;DHT22;8636;55.750;13.202;2024-03-08T06:38:38;-0.70;99.90
17039;DHT22;8636;55.750;13.202;2024-03-08T06:41:17;-0.80;99.90
17039;DHT22;8636;55.750;13.202;2024-03-08T06:43:46;-0.80;99.90
17039;DHT22;8636;55.750;13.202;2024-03-08T06:46:15;-0.90;99.90
17039;DHT22;8636;55.750;13.202;2024-03-08T06:48:50;-0.80;99.90
17039;DHT22;8636;55.750;13.202;2024-03-08T06:51:19;-0.80;99.90
17039;DHT22;8636;55.750;13.202;2024-03-08T06:53:47;-0.70;99.90
17039;DHT22;8636;55.750;13.202;2024-03-08T06:56:23;-0.80;99.90
17039;DHT22;8636;55.750;13.202;2024-03-08T06:58:52;-0.90;99.90
17039;DHT22;8636;55.750;13.202;2024-03-08T07:01:19;-0.90;99.90
17039;DHT22;8636;55.750;13.202;2024-03-08T07:03:54;-0.70;99.90
17039;DHT22;8636;55.750;13.202;2024-03-08T07:06:31;-0.60;99.90
17039;DHT22;8636;55.750;13.202;2024-03-08T07:09:07;-0.50;99.90
17039;DHT22;8636;55.750;13.202;2024-03-08T07:11:36;-0.50;99.90
17039;DHT22;8636;55.750;13.202;2024-03-08T07:14:06;-0.30;99.90
17039;DHT22;8636;55.750;13.202;2024-03-08T07:16:41;-0.20;99.90
17039;DHT22;8636;55.750;13.202;2024-03-08T07:19:09;-0.20;99.90
17039;DHT22;8636;55.750;13.202;2024-03-08T07:21:38;0.00;99.90
17039;DHT22;8636;55.750;13.202;2024-03-08T07:24:14;0.10;99.90
17039;DHT22;8636;55.750;13.202;2024-03-08T07:27:00;0.10;99.90
17039;DHT22;8636;55.750;13.202;2024-03-08T07:29:35;0.20;99.90
17039;DHT22;8636;55.750;13.202;2024-03-08T07:32:05;0.30;99.90
17039;DHT22;8636;55.750;13.202;2024-03-08T07:34:52;0.40;99.90
17039;DHT22;8636;55.750;13.202;2024-03-08T07:37:22;0.50;99.90
17039;DHT22;8636;55.750;13.202;2024-03-08T07:39:50;0.60;99.90
17039;DHT22;8636;55.750;13.202;2024-03-08T07:42:25;0.70;99.90
17039;DHT22;8636;55.750;13.202;2024-03-08T07:44:55;0.70;99.90
17039;DHT22;8636;55.750;13.202;2024-03-08T07:47:23;0.80;99.90
17039;DHT22;8636;55.750;13.202;2024-03-08T07:49:59;0.90;99.90
17039;DHT22;8636;55.750;13.202;2024-03-08T07:52:30;0.90;99.90
17039;DHT22;8636;55.750;13.202;2024-03-08T07:54:58;1.00;99.90
17039;DHT22;8636;55.750;13.202;2024-03-08T07:57:34;1.00;99.90
17039;DHT22;8636;55.750;13.202;2024-03-08T08:00:05;1.10;99.90
17039;DHT22;8636;55.750;13.202;2024-03-08T08:02:49;1.20;99.90
17039;DHT22;8636;55.750;13.202;2024-03-08T08:05:30;1.30;99.90
17039;DHT22;8636;55.750;13.202;2024-03-08T08:08:08;1.50;99.90
17039;DHT22;8636;55.750;13.202;2024-03-08T08:10:38;1.60;99.90
17039;DHT22;8636;55.750;13.202;2024-03-08T08:13:07;1.80;99.90
17039;DHT22;8636;55.750;13.202;2024-03-08T08:15:42;2.00;99.90
17039;DHT22;8636;55.750;13.202;2024-03-08T08:18:10;2.20;99.90
17039;DHT22;8636;55.750;13.202;2024-03-08T08:20:40;2.20;99.90
17039;DHT22;8636;55.750;13.202;2024-03-08T08:23:15;2.30;99.90
17039;DHT22;8636;55.750;13.202;2024-03-08T08:25:43;2.50;99.90
17039;DHT22;8636;55.750;13.202;2024-03-08T08:28:12;2.70;99.90
17039;DHT22;8636;55.750;13.202;2024-03-08T08:30:47;2.70;99.90
17039;DHT22;8636;55.750;13.202;2024-03-08T08:33:16;2.60;99.90
17039;DHT22;8636;55.750;13.202;2024-03-08T08:35:44;2.60;99.90
17039;DHT22;8636;55.750;13.202;2024-03-08T08:38:21;2.70;99.90
17039;DHT22;8636;55.750;13.202;2024-03-08T08:40:49;2.80;99.90
17039;DHT22;8636;55.750;13.202;2024-03-08T08:43:19;2.90;99.90
17039;DHT22;8636;55.750;13.202;2024-03-08T08:45:57;3.00;99.90
17039;DHT22;8636;55.750;13.202;2024-03-08T08:48:25;3.10;99.90
17039;DHT22;8636;55.750;13.202;2024-03-08T08:50:54;3.20;99.90
17039;DHT22;8636;55.750;13.202;2024-03-08T08:53:29;3.30;99.90
17039;DHT22;8636;55.750;13.202;2024-03-08T08:55:57;3.40;99.90
17039;DHT22;8636;55.750;13.202;2024-03-08T08:58:26;3.40;99.90
17039;DHT22;8636;55.750;13.202;2024-03-08T09:01:01;3.50;99.90
17039;DHT22;8636;55.750;13.202;2024-03-08T09:03:37;3.50;99.90
17039;DHT22;8636;55.750;13.202;2024-03-08T09:06:14;3.60;99.90
17039;DHT22;8636;55.750;13.202;2024-03-08T09:08:42;3.40;99.90
17039;DHT22;8636;55.750;13.202;2024-03-08T09:11:11;3.60;99.90
17039;DHT22;8636;55.750;13.202;2024-03-08T09:13:47;3.60;99.90
17039;DHT22;8636;55.750;13.202;2024-03-08T09:16:15;3.70;99.90
17039;DHT22;8636;55.750;13.202;2024-03-08T09:18:43;3.80;99.90
17039;DHT22;8636;55.750;13.202;2024-03-08T09:21:18;3.90;99.90
17039;DHT22;8636;55.750;13.202;2024-03-08T09:23:49;3.70;99.90
17039;DHT22;8636;55.750;13.202;2024-03-08T09:26:18;3.90;99.90
17039;DHT22;8636;55.750;13.202;2024-03-08T09:28:57;3.90;99.90
17039;DHT22;8636;55.750;13.202;2024-03-08T09:31:25;3.80;99.90
17039;DHT22;8636;55.750;13.202;2024-03-08T09:33:59;3.90;99.90
17039;DHT22;8636;55.750;13.202;2024-03-08T09:36:27;4.10;99.90
17039;DHT22;8636;55.750;13.202;2024-03-08T09:38:56;4.20;99.90
17039;DHT22;8636;55.750;13.202;2024-03-08T09:41:30;4.20;99.90
17039;DHT22;8636;55.750;13.202;2024-03-08T09:44:00;4.20;99.90
17039;DHT22;8636;55.750;13.202;2024-03-08T09:46:28;4.30;99.90
17039;DHT22;8636;55.750;13.202;2024-03-08T09:49:03;4.30;99.90
17039;DHT22;8636;55.750;13.202;2024-03-08T09:51:34;4.50;99.90
17039;DHT22;8636;55.750;13.202;2024-03-08T09:54:02;4.80;99.90
17039;DHT22;8636;55.750;13.202;2024-03-08T09:56:47;4.90;99.90
17039;DHT22;8636;55.750;13.202;2024-03-08T09:59:17;4.90;99.90
17039;DHT22;8636;55.750;13.202;2024-03-08T10:02:17;4.90;99.90
17039;DHT22;8636;55.750;13.202;2024-03-08T10:04:59;5.00;99.90
17039;DHT22;8636;55.750;13.202;2024-03-08T10:07:36;5.10;99.90
17039;DHT22;8636;55.750;13.202;2024-03-08T10:10:05;5.20;99.90
17039;DHT22;8636;55.750;13.202;2024-03-08T10:12:34;5.30;99.90
17039;DHT22;8636;55.750;13.202;2024-03-08T10:15:10;5.30;99.90
17039;DHT22;8636;55.750;13.202;2024-03-08T10:17:39;5.40;99.90
17039;DHT22;8636;55.750;13.202;2024-03-08T10:20:13;5.40;99.90
17039;DHT22;8636;55.750;13.202;2024-03-08T10:22:49;5.50;99.90
17039;DHT22;8636;55.750;13.202;2024-03-08T10:25:33;5.40;99.90
17039;DHT22;8636;55.750;13.202;2024-03-08T10:28:07;5.50;99.90
17039;DHT22;8636;55.750;13.202;2024-03-08T10:30:36;5.60;99.90
17039;DHT22;8636;55.750;13.202;2024-03-08T10:33:05;5.70;99.90
17039;DHT22;8636;55.750;13.202;2024-03-08T10:35:39;5.80;99.90
17039;DHT22;8636;55.750;13.202;2024-03-08T10:38:11;5.90;99.90
17039;DHT22;8636;55.750;13.202;2024-03-08T10:40:49;6.00;99.90
17039;DHT22;8636;55.750;13.202;2024-03-08T10:43:23;6.00;99.90
17039;DHT22;8636;55.750;13.202;2024-03-08T10:46:07;6.10;99.90
17039;DHT22;8636;55.750;13.202;2024-03-08T10:48:41;6.10;99.90
17039;DHT22;8636;55.750;13.202;2024-03-08T10:51:18;6.30;99.90
17039;DHT22;8636;55.750;13.202;2024-03-08T10:53:48;6.30;99.90
17039;DHT22;8636;55.750;13.202;2024-03-08T10:56:24;6.30;99.90
17039;DHT22;8636;55.750;13.202;2024-03-08T10:58:54;6.40;99.90
17039;DHT22;8636;55.750;13.202;2024-03-08T11:01:24;6.50;99.90
17039;DHT22;8636;55.750;13.202;2024-03-08T11:03:59;6.50;99.90
17039;DHT22;8636;55.750;13.202;2024-03-08T11:06:42;6.50;99.90
17039;DHT22;8636;55.750;13.202;2024-03-08T11:09:28;6.60;99.90
17039;DHT22;8636;55.750;13.202;2024-03-08T11:12:18;6.80;99.90
17039;DHT22;8636;55.750;13.202;2024-03-08T11:14:54;6.80;99.90
17039;DHT22;8636;55.750;13.202;2024-03-08T11:17:40;6.80;99.90
17039;DHT22;8636;55.750;13.202;2024-03-08T11:20:16;6.80;99.90
17039;DHT22;8636;55.750;13.202;2024-03-08T11:22:51;6.80;99.90
17039;DHT22;8636;55.750;13.202;2024-03-08T11:25:34;7.00;99.90
17039;DHT22;8636;55.750;13.202;2024-03-08T11:28:11;6.90;99.90
17039;DHT22;8636;55.750;13.202;2024-03-08T11:31:23;7.00;99.90
17039;DHT22;8636;55.750;13.202;2024-03-08T11:33:52;7.10;99.90
17039;DHT22;8636;55.750;13.202;2024-03-08T11:36:27;7.30;99.90
17039;DHT22;8636;55.750;13.202;2024-03-08T11:38:57;7.30;99.90
17039;DHT22;8636;55.750;13.202;2024-03-08T11:41:26;7.30;99.90
17039;DHT22;8636;55.750;13.202;2024-03-08T11:44:04;7.30;99.90
17039;DHT22;8636;55.750;13.202;2024-03-08T11:46:37;7.40;99.90
17039;DHT22;8636;55.750;13.202;2024-03-08T11:49:17;7.50;99.90
17039;DHT22;8636;55.750;13.202;2024-03-08T11:51:45;7.50;99.90
17039;DHT22;8636;55.750;13.202;2024-03-08T11:54:13;7.60;99.90
17039;DHT22;8636;55.750;13.202;2024-03-08T11:56:51;7.60;99.90
17039;DHT22;8636;55.750;13.202;2024-03-08T11:59:20;7.60;99.90
17039;DHT22;8636;55.750;13.202;2024-03-08T12:02:03;7.60;99.90
17039;DHT22;8636;55.750;13.202;2024-03-08T12:04:33;7.50;99.90
17039;DHT22;8636;55.750;13.202;2024-03-08T12:07:10;7.50;99.90
17039;DHT22;8636;55.750;13.202;2024-03-08T12:09:41;7.50;99.90
17039;DHT22;8636;55.750;13.202;2024-03-08T12:12:19;7.60;99.90
17039;DHT22;8636;55.750;13.202;2024-03-08T12:14:48;7.60;99.90
17039;DHT22;8636;55.750;13.202;2024-03-08T12:17:16;7.70;99.90
17039;DHT22;8636;55.750;13.202;2024-03-08T12:19:51;7.70;99.90
17039;DHT22;8636;55.750;13.202;2024-03-08T12:22:25;7.70;99.90
17039;DHT22;8636;55.750;13.202;2024-03-08T12:25:06;7.70;99.90
17039;DHT22;8636;55.750;13.202;2024-03-08T12:27:37;7.90;99.90
17039;DHT22;8636;55.750;13.202;2024-03-08T12:30:21;8.10;99.90
17039;DHT22;8636;55.750;13.202;2024-03-08T12:32:54;8.00;99.90
17039;DHT22;8636;55.750;13.202;2024-03-08T12:35:31;8.10;99.90
17039;DHT22;8636;55.750;13.202;2024-03-08T12:38:00;8.10;99.90
17039;DHT22;8636;55.750;13.202;2024-03-08T12:40:30;8.20;99.90
17039;DHT22;8636;55.750;13.202;2024-03-08T12:43:05;8.20;99.90
17039;DHT22;8636;55.750;13.202;2024-03-08T12:45:33;8.10;99.90
17039;DHT22;8636;55.750;13.202;2024-03-08T12:48:01;8.30;99.90
17039;DHT22;8636;55.750;13.202;2024-03-08T12:50:38;8.40;99.90
17039;DHT22;8636;55.750;13.202;2024-03-08T12:53:05;8.40;99.90
17039;DHT22;8636;55.750;13.202;2024-03-08T12:55:35;8.50;99.90
17039;DHT22;8636;55.750;13.202;2024-03-08T12:58:09;8.50;99.90
17039;DHT22;8636;55.750;13.202;2024-03-08T13:00:38;8.40;99.90
17039;DHT22;8636;55.750;13.202;2024-03-08T13:03:20;8.10;99.90
17039;DHT22;8636;55.750;13.202;2024-03-08T13:06:03;7.90;99.90
17039;DHT22;8636;55.750;13.202;2024-03-08T13:08:39;7.90;99.90
17039;DHT22;8636;55.750;13.202;2024-03-08T13:11:10;7.90;99.90
17039;DHT22;8636;55.750;13.202;2024-03-08T13:13:39;7.40;99.90
17039;DHT22;8636;55.750;13.202;2024-03-08T13:16:14;7.40;99.90
17039;DHT22;8636;55.750;13.202;2024-03-08T13:18:44;7.50;99.90
17039;DHT22;8636;55.750;13.202;2024-03-08T13:21:13;7.50;99.90
17039;DHT22;8636;55.750;13.202;2024-03-08T13:23:47;7.50;99.90
17039;DHT22;8636;55.750;13.202;2024-03-08T13:26:16;7.70;99.90
17039;DHT22;8636;55.750;13.202;2024-03-08T13:28:45;7.70;99.90
17039;DHT22;8636;55.750;13.202;2024-03-08T13:31:21;7.60;99.90
17039;DHT22;8636;55.750;13.202;2024-03-08T13:33:50;7.70;99.90
17039;DHT22;8636;55.750;13.202;2024-03-08T13:36:32;7.60;99.90
17039;DHT22;8636;55.750;13.202;2024-03-08T13:39:06;7.60;99.90
17039;DHT22;8636;55.750;13.202;2024-03-08T13:41:48;7.50;99.90
17039;DHT22;8636;55.750;13.202;2024-03-08T13:44:16;7.60;99.90
17039;DHT22;8636;55.750;13.202;2024-03-08T13:46:51;7.60;99.90
17039;DHT22;8636;55.750;13.202;2024-03-08T13:49:25;7.60;99.90
17039;DHT22;8636;55.750;13.202;2024-03-08T13:51:55;7.60;99.90
17039;DHT22;8636;55.750;13.202;2024-03-08T13:54:25;7.70;99.90
17039;DHT22;8636;55.750;13.202;2024-03-08T13:57:03;7.70;99.90
17039;DHT22;8636;55.750;13.202;2024-03-08T13:59:31;7.70;99.90
17039;DHT22;8636;55.750;13.202;2024-03-08T14:01:59;7.70;99.90
17039;DHT22;8636;55.750;13.202;2024-03-08T14:04:35;7.60;99.90
17039;DHT22;8636;55.750;13.202;2024-03-08T14:07:12;7.60;99.90
17039;DHT22;8636;55.750;13.202;2024-03-08T14:09:46;7.50;99.90
17039;DHT22;8636;55.750;13.202;2024-03-08T14:12:14;7.60;99.90
17039;DHT22;8636;55.750;13.202;2024-03-08T14:14:43;7.70;99.90
17039;DHT22;8636;55.750;13.202;2024-03-08T14:17:17;7.60;99.90
17039;DHT22;8636;55.750;13.202;2024-03-08T14:19:45;7.60;99.90
17039;DHT22;8636;55.750;13.202;2024-03-08T14:22:14;7.70;99.90
17039;DHT22;8636;55.750;13.202;2024-03-08T14:24:49;7.70;99.90
17039;DHT22;8636;55.750;13.202;2024-03-08T14:27:18;7.90;99.90
17039;DHT22;8636;55.750;13.202;2024-03-08T14:29:46;7.80;99.90
17039;DHT22;8636;55.750;13.202;2024-03-08T14:32:21;7.80;99.90
17039;DHT22;8636;55.750;13.202;2024-03-08T14:34:50;7.80;99.90
17039;DHT22;8636;55.750;13.202;2024-03-08T14:37:19;7.90;99.90
17039;DHT22;8636;55.750;13.202;2024-03-08T14:39:58;8.20;99.90
17039;DHT22;8636;55.750;13.202;2024-03-08T14:42:26;8.20;99.90
17039;DHT22;8636;55.750;13.202;2024-03-08T14:44:54;8.20;99.90
17039;DHT22;8636;55.750;13.202;2024-03-08T14:47:30;8.30;99.90
17039;DHT22;8636;55.750;13.202;2024-03-08T14:49:58;8.30;99.90
17039;DHT22;8636;55.750;13.202;2024-03-08T14:52:28;8.00;99.90
17039;DHT22;8636;55.750;13.202;2024-03-08T14:55:03;7.60;99.90
17039;DHT22;8636;55.750;13.202;2024-03-08T14:57:30;7.20;99.90
17039;DHT22;8636;55.750;13.202;2024-03-08T14:59:59;7.10;99.90
17039;DHT22;8636;55.750;13.202;2024-03-08T15:02:46;7.10;99.90
17039;DHT22;8636;55.750;13.202;2024-03-08T15:05:28;7.30;99.90
17039;DHT22;8636;55.750;13.202;2024-03-08T15:08:07;7.20;99.90
17039;DHT22;8636;55.750;13.202;2024-03-08T15:10:38;7.10;99.90
17039;DHT22;8636;55.750;13.202;2024-03-08T15:13:15;6.80;99.90
17039;DHT22;8636;55.750;13.202;2024-03-08T15:15:49;6.70;99.90
17039;DHT22;8636;55.750;13.202;2024-03-08T15:18:31;6.60;99.90
17039;DHT22;8636;55.750;13.202;2024-03-08T15:21:03;6.50;99.90
17039;DHT22;8636;55.750;13.202;2024-03-08T15:23:40;6.40;99.90
17039;DHT22;8636;55.750;13.202;2024-03-08T15:26:13;6.30;99.90
17039;DHT22;8636;55.750;13.202;2024-03-08T15:28:47;6.20;99.90
17039;DHT22;8636;55.750;13.202;2024-03-08T15:31:19;6.20;99.90
17039;DHT22;8636;55.750;13.202;2024-03-08T15:33:55;6.20;99.90
17039;DHT22;8636;55.750;13.202;2024-03-08T15:36:28;6.20;99.90
17039;DHT22;8636;55.750;13.202;2024-03-08T15:39:04;6.30;99.90
17039;DHT22;8636;55.750;13.202;2024-03-08T15:41:37;6.50;99.90
17039;DHT22;8636;55.750;13.202;2024-03-08T15:44:12;6.70;99.90
17039;DHT22;8636;55.750;13.202;2024-03-08T15:46:40;6.70;99.90
17039;DHT22;8636;55.750;13.202;2024-03-08T15:49:08;6.70;99.90
17039;DHT22;8636;55.750;13.202;2024-03-08T15:51:43;6.80;99.90
17039;DHT22;8636;55.750;13.202;2024-03-08T15:54:15;6.80;99.90
17039;DHT22;8636;55.750;13.202;2024-03-08T15:56:50;6.80;99.90
17039;DHT22;8636;55.750;13.202;2024-03-08T15:59:18;6.70;99.90
17039;DHT22;8636;55.750;13.202;2024-03-08T16:01:47;6.60;99.90
17039;DHT22;8636;55.750;13.202;2024-03-08T16:04:32;6.50;99.90
17039;DHT22;8636;55.750;13.202;2024-03-08T16:07:03;6.30;99.90
17039;DHT22;8636;55.750;13.202;2024-03-08T16:09:39;6.20;99.90
17039;DHT22;8636;55.750;13.202;2024-03-08T16:12:09;6.00;99.90
17039;DHT22;8636;55.750;13.202;2024-03-08T16:14:37;6.00;99.90